createdAt,value
2023-02-19T00:01:48.288Z,99646.56
2023-02-19T00:04:22.117Z,99641.50
2023-02-19T00:06:50.069Z,99648.47
2023-02-19T00:09:19.081Z,99641.25
2023-02-19T00:11:48.141Z,99661.19
2023-02-19T00:14:18.291Z,99649.44
2023-02-19T00:16:46.576Z,99649.56
2023-02-19T00:19:16.948Z,99651.41
2023-02-19T00:21:44.768Z,99646.31
2023-02-19T00:24:13.293Z,99656.19
2023-02-19T00:26:41.945Z,99653.03
2023-02-19T00:29:13.755Z,99644.63
2023-02-19T00:31:41.878Z,99664.41
2023-02-19T00:34:11.169Z,99654.91
2023-02-19T00:36:40.053Z,99647.56
2023-02-19T00:39:08.954Z,99645.41
2023-02-19T00:41:36.804Z,99639.38
2023-02-19T00:44:06.836Z,99643.56
2023-02-19T00:46:43.678Z,99644.00
2023-02-19T00:49:16.959Z,99644.75
2023-02-19T00:51:45.117Z,99637.53
2023-02-19T00:54:13.083Z,99635.28
2023-02-19T00:56:41.090Z,99638.41
2023-02-19T00:59:08.960Z,99645.28
2023-02-19T01:01:36.322Z,99642.72
2023-02-19T01:04:06.471Z,99640.16
2023-02-19T01:06:35.133Z,99633.09
2023-02-19T01:09:03.066Z,99635.13
2023-02-19T01:11:30.971Z,99637.81
2023-02-19T01:14:00.160Z,99629.34
2023-02-19T01:16:28.211Z,99622.41
2023-02-19T01:18:57.241Z,99620.88
2023-02-19T01:21:26.193Z,99616.66
2023-02-19T01:23:54.337Z,99612.44
2023-02-19T01:26:25.499Z,99616.44
2023-02-19T01:28:53.283Z,99603.88
2023-02-19T01:31:23.240Z,99611.56
2023-02-19T01:33:54.860Z,99617.72
2023-02-19T01:36:22.859Z,99612.16
2023-02-19T01:38:50.493Z,99622.31
2023-02-19T01:41:20.619Z,99617.41
2023-02-19T01:44:04.154Z,99627.50
2023-02-19T01:46:39.265Z,99632.81
2023-02-19T01:49:11.157Z,99627.16
2023-02-19T01:51:42.349Z,99626.00
2023-02-19T01:54:10.851Z,99628.78
2023-02-19T01:56:40.164Z,99636.09
2023-02-19T01:59:08.171Z,99638.75
2023-02-19T02:01:38.062Z,99627.19
2023-02-19T02:04:06.166Z,99630.00
2023-02-19T02:06:41.876Z,99642.47
2023-02-19T02:09:28.187Z,99637.09
2023-02-19T02:11:56.000Z,99628.78
2023-02-19T02:14:26.280Z,99625.41
2023-02-19T02:17:24.849Z,99613.09
2023-02-19T02:20:13.120Z,99607.47
2023-02-19T02:23:08.182Z,99613.50
2023-02-19T02:25:38.885Z,99618.25
2023-02-19T02:28:21.188Z,99620.44
2023-02-19T02:31:06.763Z,99610.88
2023-02-19T02:33:40.017Z,99604.56
2023-02-19T02:36:20.539Z,99605.78
2023-02-19T02:38:48.817Z,99615.78
2023-02-19T02:41:16.669Z,99606.38
2023-02-19T02:43:44.129Z,99618.06
2023-02-19T02:46:16.901Z,99617.31
2023-02-19T02:48:54.211Z,99611.91
2023-02-19T02:51:27.845Z,99615.00
2023-02-19T02:54:16.903Z,99607.13
2023-02-19T02:56:45.209Z,99601.41
2023-02-19T02:59:14.907Z,99608.06
2023-02-19T03:02:02.949Z,99609.13
2023-02-19T03:04:31.816Z,99604.19
2023-02-19T03:07:04.140Z,99602.75
2023-02-19T03:09:40.909Z,99611.22
2023-02-19T03:12:31.411Z,99608.44
2023-02-19T03:15:25.791Z,99601.00
2023-02-19T03:18:15.152Z,99609.22
2023-02-19T03:20:46.049Z,99614.94
2023-02-19T03:23:14.558Z,99618.69
2023-02-19T03:26:01.049Z,99623.59
2023-02-19T03:28:48.919Z,99625.91
2023-02-19T03:31:19.547Z,99617.56
2023-02-19T03:33:53.144Z,99605.97
2023-02-19T03:36:26.054Z,99605.06
2023-02-19T03:38:59.146Z,99611.09
2023-02-19T03:41:33.147Z,99616.50
2023-02-19T03:44:19.150Z,99616.50
2023-02-19T03:47:22.420Z,99627.16
2023-02-19T03:49:59.426Z,99622.66
2023-02-19T03:52:46.056Z,99626.34
2023-02-19T03:55:22.740Z,99623.25
2023-02-19T03:57:54.155Z,99616.44
2023-02-19T04:00:52.158Z,99621.94
2023-02-19T04:03:24.126Z,99609.25
2023-02-19T04:05:56.160Z,99623.66
2023-02-19T04:08:24.944Z,99626.91
2023-02-19T04:10:53.794Z,99622.28
2023-02-19T04:13:26.913Z,99617.66
2023-02-19T04:15:56.075Z,99622.50
2023-02-19T04:18:27.169Z,99618.34
2023-02-19T04:20:55.206Z,99617.16
2023-02-19T04:23:25.454Z,99611.63
2023-02-19T04:25:57.085Z,99613.03
2023-02-19T04:28:24.452Z,99610.81
2023-02-19T04:30:52.170Z,99616.53
2023-02-19T04:33:20.080Z,99616.72
2023-02-19T04:35:47.951Z,99615.31
2023-02-19T04:38:15.609Z,99613.75
2023-02-19T04:40:43.278Z,99618.41
2023-02-19T04:43:10.863Z,99615.47
2023-02-19T04:45:39.176Z,99629.19
2023-02-19T04:48:06.865Z,99616.34
2023-02-19T04:50:34.340Z,99625.41
2023-02-19T04:53:02.037Z,99630.00
2023-02-19T04:55:29.287Z,99617.03
2023-02-19T04:57:57.093Z,99622.78
2023-02-19T05:00:24.847Z,99622.63
2023-02-19T05:02:52.399Z,99618.97
2023-02-19T05:05:20.067Z,99617.75
2023-02-19T05:07:47.965Z,99602.31
2023-02-19T05:10:15.620Z,99594.75
2023-02-19T05:12:43.158Z,99600.91
2023-02-19T05:15:10.489Z,99597.69
2023-02-19T05:17:38.039Z,99592.88
2023-02-19T05:20:05.307Z,99592.59
2023-02-19T05:22:33.105Z,99591.50
2023-02-19T05:25:00.226Z,99603.88
2023-02-19T05:27:27.658Z,99603.38
2023-02-19T05:29:55.240Z,99614.66
2023-02-19T05:32:22.725Z,99612.31
2023-02-19T05:34:51.971Z,99609.69
2023-02-19T05:37:19.499Z,99601.78
2023-02-19T05:39:47.246Z,99601.00
2023-02-19T05:42:15.982Z,99598.22
2023-02-19T05:44:43.500Z,99600.81
2023-02-19T05:47:11.427Z,99607.13
2023-02-19T05:49:38.989Z,99600.91
2023-02-19T05:52:06.254Z,99617.88
2023-02-19T05:54:33.513Z,99613.53
2023-02-19T05:57:01.257Z,99614.88
2023-02-19T05:59:28.483Z,99611.66
2023-02-19T06:01:57.128Z,99614.88
2023-02-19T06:04:24.936Z,99612.91
2023-02-19T06:06:52.341Z,99616.59
2023-02-19T06:09:20.131Z,99617.06
2023-02-19T06:11:48.153Z,99612.72
2023-02-19T06:14:15.662Z,99599.88
2023-02-19T06:16:43.273Z,99602.72
2023-02-19T06:19:11.145Z,99597.84
2023-02-19T06:21:39.085Z,99594.59
2023-02-19T06:24:10.201Z,99588.03
2023-02-19T06:26:39.143Z,99599.16
2023-02-19T06:29:06.529Z,99598.63
2023-02-19T06:31:34.174Z,99602.59
2023-02-19T06:34:04.369Z,99599.13
2023-02-19T06:36:32.103Z,99589.06
2023-02-19T06:39:04.299Z,99587.75
2023-02-19T06:41:32.293Z,99589.88
2023-02-19T06:44:00.118Z,99594.16
2023-02-19T06:46:27.217Z,99595.38
2023-02-19T06:48:54.790Z,99600.75
2023-02-19T06:51:24.483Z,99614.47
2023-02-19T06:53:52.022Z,99599.25
2023-02-19T06:56:33.427Z,99602.03
2023-02-19T06:59:03.186Z,99597.66
2023-02-19T07:01:32.123Z,99601.06
2023-02-19T07:04:00.084Z,99611.41
2023-02-19T07:06:28.236Z,99616.44
2023-02-19T07:08:57.028Z,99607.91
2023-02-19T07:11:24.893Z,99605.81
2023-02-19T07:14:00.231Z,99607.47
2023-02-19T07:16:28.331Z,99598.50
2023-02-19T07:19:00.316Z,99595.97
2023-02-19T07:21:28.316Z,99586.66
2023-02-19T07:23:56.032Z,99584.13
2023-02-19T07:26:23.558Z,99578.56
2023-02-19T07:28:52.138Z,99579.53
2023-02-19T07:31:22.306Z,99574.06
2023-02-19T07:33:50.562Z,99576.16
2023-02-19T07:36:19.325Z,99566.72
2023-02-19T07:38:47.141Z,99566.69
2023-02-19T07:41:14.568Z,99565.50
2023-02-19T07:43:42.333Z,99560.06
2023-02-19T07:46:12.103Z,99564.03
2023-02-19T07:48:40.943Z,99567.31
2023-02-19T07:51:11.802Z,99579.59
2023-02-19T07:53:39.340Z,99583.34
2023-02-19T07:56:08.151Z,99587.94
2023-02-19T07:58:35.704Z,99591.97
2023-02-19T08:01:18.408Z,99594.47
2023-02-19T08:03:47.760Z,99603.41
2023-02-19T08:06:16.262Z,99601.63
2023-02-19T08:08:44.173Z,99605.88
2023-02-19T08:11:30.173Z,99607.22
2023-02-19T08:13:57.955Z,99606.59
2023-02-19T08:16:40.628Z,99608.16
2023-02-19T08:19:10.069Z,99621.53
2023-02-19T08:21:37.332Z,99619.25
2023-02-19T08:24:05.157Z,99625.72
2023-02-19T08:26:33.262Z,99621.78
2023-02-19T08:29:01.220Z,99624.44
2023-02-19T08:31:29.201Z,99627.50
2023-02-19T08:33:56.757Z,99627.28
2023-02-19T08:36:24.372Z,99629.25
2023-02-19T08:38:52.109Z,99623.34
2023-02-19T08:41:19.260Z,99626.84
2023-02-19T08:43:47.054Z,99609.72
2023-02-19T08:46:14.768Z,99611.25
2023-02-19T08:48:42.382Z,99613.44
2023-02-19T08:51:12.573Z,99608.19
2023-02-19T08:53:41.277Z,99611.25
2023-02-19T08:56:13.327Z,99612.34
2023-02-19T08:58:41.291Z,99616.63
2023-02-19T09:01:11.549Z,99610.81
2023-02-19T09:03:39.480Z,99613.53
2023-02-19T09:06:07.736Z,99627.00
2023-02-19T09:08:35.305Z,99617.16
2023-02-19T09:11:04.770Z,99627.53
2023-02-19T09:13:32.302Z,99619.84
2023-02-19T09:15:59.964Z,99630.25
2023-02-19T09:18:27.305Z,99632.09
2023-02-19T09:20:54.963Z,99631.31
2023-02-19T09:23:22.604Z,99628.50
2023-02-19T09:25:57.401Z,99621.25
2023-02-19T09:28:25.103Z,99626.75
2023-02-19T09:30:52.401Z,99622.19
2023-02-19T09:33:20.098Z,99625.25
2023-02-19T09:35:47.400Z,99614.94
2023-02-19T09:38:15.105Z,99616.72
2023-02-19T09:40:42.425Z,99606.63
2023-02-19T09:43:15.501Z,99612.78
2023-02-19T09:45:43.285Z,99613.56
2023-02-19T09:48:12.418Z,99617.81
2023-02-19T09:50:44.421Z,99594.00
2023-02-19T09:53:25.039Z,99605.31
2023-02-19T09:55:53.243Z,99593.19
2023-02-19T09:58:28.327Z,99589.97
2023-02-19T10:00:57.434Z,99579.53
2023-02-19T10:03:31.242Z,99574.09
2023-02-19T10:06:02.052Z,99572.28
2023-02-19T10:08:32.429Z,99577.19
2023-02-19T10:11:01.429Z,99568.56
2023-02-19T10:13:34.918Z,99573.09
2023-02-19T10:16:04.588Z,99571.44
2023-02-19T10:18:41.441Z,99567.72
2023-02-19T10:21:12.226Z,99574.94
2023-02-19T10:23:40.669Z,99556.53
2023-02-19T10:26:08.054Z,99560.06
2023-02-19T10:28:36.613Z,99556.03
2023-02-19T10:31:11.543Z,99545.72
2023-02-19T10:33:52.443Z,99542.19
2023-02-19T10:36:25.449Z,99527.91
2023-02-19T10:38:53.685Z,99522.81
2023-02-19T10:41:23.771Z,99524.03
2023-02-19T10:44:29.832Z,99517.84
2023-02-19T10:46:59.548Z,99522.00
2023-02-19T10:49:33.370Z,99519.06
2023-02-19T10:52:03.545Z,99508.97
2023-02-19T10:54:35.665Z,99502.50
2023-02-19T10:57:15.413Z,99502.09
2023-02-19T10:59:54.465Z,99505.56
2023-02-19T11:02:22.145Z,99501.69
2023-02-19T11:05:15.390Z,99482.56
2023-02-19T11:07:58.389Z,99474.59
2023-02-19T11:10:27.952Z,99467.31
2023-02-19T11:12:58.475Z,99479.88
2023-02-19T11:15:31.869Z,99477.19
2023-02-19T11:18:25.564Z,99471.75
2023-02-19T11:20:55.856Z,99458.38
2023-02-19T11:23:33.568Z,99456.19
2023-02-19T11:26:04.331Z,99445.25
2023-02-19T11:28:40.162Z,99445.88
2023-02-19T11:31:20.296Z,99443.59
2023-02-19T11:33:55.863Z,99450.28
2023-02-19T11:36:30.109Z,99436.00
2023-02-19T11:38:59.964Z,99425.84
2023-02-19T11:41:41.505Z,99450.97
2023-02-19T11:44:34.264Z,99436.97
2023-02-19T11:47:22.884Z,99443.75
2023-02-19T11:50:09.411Z,99421.97
2023-02-19T11:53:06.429Z,99421.81
2023-02-19T11:56:17.168Z,99419.63
2023-02-19T11:59:04.173Z,99419.97
2023-02-19T12:02:05.468Z,99404.28
2023-02-19T12:05:04.442Z,99432.03
2023-02-19T12:07:56.430Z,99401.19
2023-02-19T12:10:52.737Z,99402.63
2023-02-19T12:13:41.178Z,99396.66
2023-02-19T12:16:21.532Z,99386.09
2023-02-19T12:19:26.066Z,99391.88
2023-02-19T12:22:11.745Z,99395.75
2023-02-19T12:25:01.430Z,99377.69
2023-02-19T12:27:50.446Z,99387.53
2023-02-19T12:30:48.775Z,99390.22
2023-02-19T12:33:31.450Z,99404.47
2023-02-19T12:36:02.458Z,99402.03
2023-02-19T12:38:44.755Z,99401.31
2023-02-19T12:41:22.296Z,99419.09
2023-02-19T12:44:20.193Z,99409.34
2023-02-19T12:46:53.630Z,99394.53
2023-02-19T12:49:27.298Z,99387.72
2023-02-19T12:51:59.740Z,99396.41
2023-02-19T12:54:44.767Z,99405.22
2023-02-19T12:57:21.442Z,99403.09
2023-02-19T13:00:04.933Z,99412.94
2023-02-19T13:02:38.980Z,99397.06
2023-02-19T13:05:26.146Z,99401.97
2023-02-19T13:07:57.651Z,99400.59
2023-02-19T13:10:34.567Z,99398.06
2023-02-19T13:13:07.681Z,99405.06
2023-02-19T13:15:39.030Z,99409.09
2023-02-19T13:18:14.331Z,99412.38
2023-02-19T13:20:43.461Z,99413.47
2023-02-19T13:23:38.580Z,99397.97
2023-02-19T13:26:24.334Z,99400.47
2023-02-19T13:29:14.234Z,99390.22
2023-02-19T13:32:12.348Z,99376.13
2023-02-19T13:34:57.240Z,99380.50
2023-02-19T13:37:24.958Z,99387.22
2023-02-19T13:39:54.499Z,99385.06
2023-02-19T13:42:34.679Z,99393.19
2023-02-19T13:45:06.875Z,99404.28
2023-02-19T13:47:51.238Z,99400.69
2023-02-19T13:50:25.278Z,99403.16
2023-02-19T13:52:57.605Z,99406.13
2023-02-19T13:55:43.483Z,99414.75
2023-02-19T13:58:33.128Z,99427.97
2023-02-19T14:01:10.855Z,99434.81
2023-02-19T14:03:51.063Z,99443.81
2023-02-19T14:06:18.993Z,99436.94
2023-02-19T14:08:56.413Z,99443.50
2023-02-19T14:11:42.426Z,99455.66
2023-02-19T14:14:35.615Z,99451.75
2023-02-19T14:17:42.615Z,99458.22
2023-02-19T14:20:10.239Z,99475.50
2023-02-19T14:22:53.219Z,99470.38
2023-02-19T14:25:41.998Z,99472.25
2023-02-19T14:28:27.497Z,99471.41
2023-02-19T14:31:01.252Z,99487.00
2023-02-19T14:33:35.263Z,99483.75
2023-02-19T14:36:19.653Z,99501.28
2023-02-19T14:38:51.247Z,99511.50
2023-02-19T14:41:19.548Z,99502.97
2023-02-19T14:43:50.250Z,99489.88
2023-02-19T14:46:26.520Z,99508.88
2023-02-19T14:48:54.385Z,99503.72
2023-02-19T14:51:24.507Z,99506.75
2023-02-19T14:53:53.508Z,99513.75
2023-02-19T14:56:24.268Z,99515.06
2023-02-19T14:59:24.925Z,99520.19
2023-02-19T15:01:57.647Z,99525.88
2023-02-19T15:04:29.285Z,99522.09
2023-02-19T15:06:57.259Z,99529.69
2023-02-19T15:09:31.263Z,99533.94
2023-02-19T15:11:59.396Z,99541.25
2023-02-19T15:14:30.870Z,99541.69
2023-02-19T15:17:01.657Z,99535.94
2023-02-19T15:19:33.264Z,99552.75
2023-02-19T15:22:02.267Z,99557.25
2023-02-19T15:24:29.860Z,99559.00
2023-02-19T15:26:57.570Z,99561.91
2023-02-19T15:29:27.557Z,99561.97
2023-02-19T15:32:00.485Z,99562.25
2023-02-19T15:34:30.288Z,99561.72
2023-02-19T15:37:08.423Z,99558.78
2023-02-19T15:39:46.696Z,99555.28
2023-02-19T15:42:35.021Z,99561.34
2023-02-19T15:45:19.701Z,99560.81
2023-02-19T15:47:53.206Z,99552.91
2023-02-19T15:50:35.408Z,99547.41
2023-02-19T15:53:04.712Z,99551.66
2023-02-19T15:55:47.435Z,99542.34
2023-02-19T15:58:18.054Z,99539.25
2023-02-19T16:00:51.054Z,99537.06
2023-02-19T16:03:20.898Z,99552.63
2023-02-19T16:06:11.605Z,99557.78
2023-02-19T16:08:40.449Z,99558.66
2023-02-19T16:11:34.713Z,99567.75
2023-02-19T16:14:33.901Z,99572.72
2023-02-19T16:17:12.712Z,99569.31
2023-02-19T16:19:43.709Z,99593.63
2023-02-19T16:22:13.577Z,99587.84
2023-02-19T16:24:46.447Z,99589.56
2023-02-19T16:27:14.716Z,99610.28
2023-02-19T16:29:45.577Z,99616.72
2023-02-19T16:32:17.501Z,99622.66
2023-02-19T16:34:47.736Z,99625.16
2023-02-19T16:37:35.074Z,99622.84
2023-02-19T16:40:08.491Z,99620.56
2023-02-19T16:43:23.820Z,99627.56
2023-02-19T16:45:51.373Z,99619.16
2023-02-19T16:48:19.917Z,99616.75
2023-02-19T16:50:47.588Z,99611.09
2023-02-19T16:53:23.077Z,99614.50
2023-02-19T16:55:52.752Z,99617.59
2023-02-19T16:58:21.562Z,99617.94
2023-02-19T17:00:49.626Z,99630.78
2023-02-19T17:03:22.508Z,99624.31
2023-02-19T17:05:50.834Z,99636.19
2023-02-19T17:08:43.559Z,99654.13
2023-02-19T17:11:14.327Z,99652.16
2023-02-19T17:13:42.936Z,99645.84
2023-02-19T17:16:21.497Z,99639.25
2023-02-19T17:18:49.757Z,99630.91
2023-02-19T17:21:28.936Z,99635.34
2023-02-19T17:23:59.759Z,99636.59
2023-02-19T17:26:32.278Z,99623.19
2023-02-19T17:29:01.125Z,99630.13
2023-02-19T17:31:29.005Z,99625.63
2023-02-19T17:33:56.947Z,99645.53
2023-02-19T17:36:30.739Z,99640.47
2023-02-19T17:38:59.599Z,99652.34
2023-02-19T17:41:27.685Z,99644.47
2023-02-19T17:43:55.774Z,99636.44
2023-02-19T17:46:25.290Z,99648.97
2023-02-19T17:48:54.117Z,99638.16
2023-02-19T17:51:22.300Z,99634.16
2023-02-19T17:53:49.965Z,99628.13
2023-02-19T17:56:19.592Z,99635.69
2023-02-19T17:58:47.782Z,99644.94
2023-02-19T18:01:15.957Z,99646.78
2023-02-19T18:03:44.378Z,99644.94
2023-02-19T18:06:12.489Z,99646.34
2023-02-19T18:08:40.485Z,99649.09
2023-02-19T18:11:08.317Z,99648.47
2023-02-19T18:13:35.975Z,99648.31
2023-02-19T18:16:03.768Z,99658.50
2023-02-19T18:18:31.480Z,99660.66
2023-02-19T18:20:59.159Z,99665.88
2023-02-19T18:23:26.614Z,99671.88
2023-02-19T18:25:54.502Z,99679.75
2023-02-19T18:28:21.980Z,99684.19
2023-02-19T18:30:49.978Z,99687.56
2023-02-19T18:33:18.158Z,99695.25
2023-02-19T18:35:49.455Z,99712.63
2023-02-19T18:38:16.991Z,99712.63
2023-02-19T18:40:44.503Z,99727.41
2023-02-19T18:43:12.332Z,99732.91
2023-02-19T18:45:40.338Z,99736.59
2023-02-19T18:48:09.508Z,99738.28
2023-02-19T18:50:38.117Z,99750.59
2023-02-19T18:53:05.824Z,99776.47
2023-02-19T18:55:33.643Z,99775.09
2023-02-19T18:58:01.642Z,99790.25
2023-02-19T19:00:29.778Z,99800.75
2023-02-19T19:03:00.184Z,99806.66
2023-02-19T19:05:28.653Z,99805.16
2023-02-19T19:07:59.613Z,99815.97
2023-02-19T19:10:27.326Z,99830.53
2023-02-19T19:12:55.700Z,99826.84
2023-02-19T19:15:23.521Z,99845.06
2023-02-19T19:17:51.404Z,99845.69
2023-02-19T19:20:23.201Z,99850.78
2023-02-19T19:22:52.857Z,99854.66
2023-02-19T19:25:22.964Z,99855.44
2023-02-19T19:27:52.030Z,99854.50
2023-02-19T19:30:20.578Z,99863.31
2023-02-19T19:32:49.883Z,99857.91
2023-02-19T19:35:20.863Z,99856.66
2023-02-19T19:37:49.028Z,99860.53
2023-02-19T19:40:17.692Z,99864.22
2023-02-19T19:42:45.985Z,99862.53
2023-02-19T19:45:14.895Z,99869.03
2023-02-19T19:47:42.546Z,99870.59
2023-02-19T19:50:10.717Z,99884.44
2023-02-19T19:52:38.534Z,99871.34
2023-02-19T19:55:07.163Z,99866.09
2023-02-19T19:57:34.874Z,99874.09
2023-02-19T20:00:03.241Z,99881.16
2023-02-19T20:02:31.160Z,99889.50
2023-02-19T20:04:59.045Z,99889.16
2023-02-19T20:07:28.695Z,99896.75
2023-02-19T20:09:56.540Z,99905.72
2023-02-19T20:12:24.276Z,99910.66
2023-02-19T20:14:51.713Z,99924.50
2023-02-19T20:17:19.701Z,99914.03
2023-02-19T20:19:47.543Z,99917.09
2023-02-19T20:22:15.249Z,99931.44
2023-02-19T20:24:43.240Z,99933.56
2023-02-19T20:27:11.060Z,99927.97
2023-02-19T20:29:38.534Z,99934.56
2023-02-19T20:32:05.954Z,99935.13
2023-02-19T20:34:33.549Z,99942.75
2023-02-19T20:37:01.552Z,99940.00
2023-02-19T20:39:30.192Z,99944.63
2023-02-19T20:41:59.199Z,99942.53
2023-02-19T20:44:27.644Z,99952.28
2023-02-19T20:46:56.253Z,99966.06
2023-02-19T20:49:26.723Z,99978.28
2023-02-19T20:51:58.242Z,99980.03
2023-02-19T20:54:28.258Z,99985.47
2023-02-19T20:56:57.515Z,99998.25
2023-02-19T20:59:27.563Z,99992.91
2023-02-19T21:01:55.229Z,100009.25
2023-02-19T21:04:23.531Z,100004.16
2023-02-19T21:06:52.561Z,100021.81
2023-02-19T21:09:21.927Z,100026.84
2023-02-19T21:11:50.441Z,100019.41
2023-02-19T21:14:18.564Z,100024.22
2023-02-19T21:16:46.275Z,100022.25
2023-02-19T21:19:13.938Z,100029.09
2023-02-19T21:21:41.534Z,100026.06
2023-02-19T21:24:09.940Z,100036.22
2023-02-19T21:26:39.020Z,100036.84
2023-02-19T21:29:08.013Z,100040.41
2023-02-19T21:31:40.798Z,100038.91
2023-02-19T21:34:10.274Z,100041.63
2023-02-19T21:36:39.660Z,100061.00
2023-02-19T21:39:08.460Z,100044.72
2023-02-19T21:41:36.107Z,100049.66
2023-02-19T21:44:04.401Z,100049.31
2023-02-19T21:46:33.207Z,100079.84
2023-02-19T21:49:01.065Z,100081.50
2023-02-19T21:51:34.673Z,100088.91
2023-02-19T21:54:02.906Z,100097.06
2023-02-19T21:56:33.565Z,100108.59
2023-02-19T21:59:02.269Z,100122.47
2023-02-19T22:01:32.581Z,100122.59
2023-02-19T22:04:00.583Z,100128.63
2023-02-19T22:06:29.809Z,100130.72
2023-02-19T22:08:57.970Z,100144.31
2023-02-19T22:11:26.654Z,100154.31
2023-02-19T22:13:54.593Z,100154.31
2023-02-19T22:16:22.175Z,100164.81
2023-02-19T22:18:53.783Z,100155.69
2023-02-19T22:21:22.684Z,100171.09
2023-02-19T22:23:51.314Z,100180.50
2023-02-19T22:26:25.954Z,100185.50
2023-02-19T22:28:55.232Z,100187.38
2023-02-19T22:31:24.839Z,100183.22
2023-02-19T22:33:52.793Z,100189.31
2023-02-19T22:36:25.275Z,100188.28
2023-02-19T22:38:53.325Z,100189.31
2023-02-19T22:41:21.612Z,100184.91
2023-02-19T22:43:49.217Z,100192.25
2023-02-19T22:46:24.487Z,100188.09
2023-02-19T22:48:52.011Z,100184.44
2023-02-19T22:51:21.695Z,100185.41
2023-02-19T22:53:51.336Z,100169.53
2023-02-19T22:56:20.351Z,100188.03
2023-02-19T22:58:48.008Z,100197.13
2023-02-19T23:01:15.783Z,100189.81
2023-02-19T23:03:46.617Z,100190.09
2023-02-19T23:06:14.582Z,100198.72
2023-02-19T23:08:43.021Z,100191.16
2023-02-19T23:11:13.711Z,100204.44
2023-02-19T23:13:42.639Z,100201.09
2023-02-19T23:16:10.136Z,100212.06
2023-02-19T23:18:37.717Z,100213.59
2023-02-19T23:21:05.034Z,100220.38
2023-02-19T23:23:32.721Z,100223.00
2023-02-19T23:26:00.366Z,100227.16
2023-02-19T23:28:27.662Z,100225.34
2023-02-19T23:30:55.251Z,100233.41
2023-02-19T23:33:22.716Z,100242.28
2023-02-19T23:35:50.371Z,100236.00
2023-02-19T23:38:18.050Z,100236.56
2023-02-19T23:40:45.731Z,100237.09
2023-02-19T23:43:13.212Z,100250.16
2023-02-19T23:45:40.763Z,100244.66
2023-02-19T23:48:08.111Z,100243.34
2023-02-19T23:50:35.626Z,100243.63
2023-02-19T23:53:02.855Z,100243.34
2023-02-19T23:55:30.315Z,100244.38
2023-02-19T23:57:57.866Z,100243.34
